Time;durP1;ratioP1;P1;durP2;ratioP2;P2;SDS_P1;SDS_P2;PMS_P1;PMS_P2;Temp;Humidity;BMP_temperature;BMP_pressure;BME280_temperature;BME280_humidity;BME280_pressure;Samples;Min_cycle;Max_cycle;Signal;HPM_P1;HPM_P2
2022/07/21 00:02:20;;;;;;;5.00;4.60;;;20.40;99.90;;;;;;5028235;28;20057;-78
2022/07/21 00:04:46;;;;;;;5.20;4.68;;;20.30;99.90;;;;;;5027147;28;20541;-78
2022/07/21 00:07:11;;;;;;;4.72;4.22;;;20.40;99.90;;;;;;5028253;28;20375;-79
2022/07/21 00:09:37;;;;;;;5.20;4.70;;;20.40;99.90;;;;;;5026398;28;20057;-78
2022/07/21 00:12:04;;;;;;;6.03;5.43;;;20.30;99.90;;;;;;5026557;28;20095;-77
2022/07/21 00:14:30;;;;;;;6.22;4.43;;;20.30;99.90;;;;;;5029430;28;20698;-78
2022/07/21 00:16:55;;;;;;;5.07;4.43;;;20.20;99.90;;;;;;5022694;28;20117;-78
2022/07/21 00:19:21;;;;;;;4.95;3.83;;;20.20;99.90;;;;;;5030418;28;20164;-78
2022/07/21 00:21:47;;;;;;;5.15;3.97;;;20.30;99.90;;;;;;5003209;28;20184;-78
2022/07/21 00:24:12;;;;;;;5.15;4.30;;;20.40;99.90;;;;;;5027271;28;20105;-78
2022/07/21 00:26:38;;;;;;;5.22;4.72;;;20.30;99.90;;;;;;5010461;28;20545;-77
2022/07/21 00:29:04;;;;;;;5.70;4.93;;;20.30;99.90;;;;;;5022429;28;20103;-79
2022/07/21 00:31:29;;;;;;;6.20;5.03;;;20.40;99.90;;;;;;5010128;28;20034;-78
2022/07/21 00:33:55;;;;;;;5.10;4.68;;;20.40;99.90;;;;;;5010040;28;20017;-78
2022/07/21 00:36:21;;;;;;;5.25;4.75;;;20.30;99.90;;;;;;5022064;28;20393;-78
2022/07/21 00:38:48;;;;;;;6.72;5.70;;;20.20;99.90;;;;;;5005868;28;20030;-79
2022/07/21 00:41:14;;;;;;;6.05;5.45;;;20.10;99.90;;;;;;5008457;28;20052;-78
2022/07/21 00:43:39;;;;;;;6.50;5.90;;;20.10;99.90;;;;;;5009464;28;20041;-78
2022/07/21 00:46:05;;;;;;;6.03;5.43;;;20.10;99.90;;;;;;5023225;28;20041;-79
2022/07/21 00:48:31;;;;;;;6.22;5.63;;;20.10;99.90;;;;;;5022718;28;20029;-77
2022/07/21 00:50:57;;;;;;;5.43;4.57;;;20.20;99.90;;;;;;5023851;28;20033;-78
2022/07/21 00:53:23;;;;;;;5.68;4.95;;;20.20;99.90;;;;;;5025835;28;20014;-78
2022/07/21 00:55:48;;;;;;;5.15;4.57;;;20.10;99.90;;;;;;5022904;28;20521;-77
2022/07/21 00:58:14;;;;;;;6.43;5.75;;;20.10;99.90;;;;;;5016960;28;20088;-78
2022/07/21 01:00:40;;;;;;;6.75;5.45;;;20.00;99.90;;;;;;5029417;28;20041;-79
2022/07/21 01:03:06;;;;;;;5.70;5.10;;;20.10;99.90;;;;;;5018239;28;20032;-78
2022/07/21 01:09:14;;;;;;;5.10;4.60;;;20.10;99.90;;;;;;5243602;22;20053;-78
2022/07/21 01:11:40;;;;;;;5.93;5.32;;;20.00;99.90;;;;;;4998708;28;20465;-77
2022/07/21 01:14:06;;;;;;;7.18;5.35;;;20.00;99.90;;;;;;4973204;28;20104;-77
2022/07/21 01:16:31;;;;;;;8.00;5.88;;;20.10;99.90;;;;;;5003031;28;20204;-76
2022/07/21 01:18:58;;;;;;;5.97;5.35;;;20.00;99.90;;;;;;5002803;28;20033;-77
2022/07/21 01:21:31;;;;;;;6.25;5.50;;;20.10;99.90;;;;;;5016930;28;20026;-76
2022/07/21 01:23:56;;;;;;;5.68;5.07;;;19.90;99.90;;;;;;5010974;28;20429;-77
2022/07/21 01:26:22;;;;;;;5.75;5.20;;;20.00;99.90;;;;;;4981034;28;20100;-77
2022/07/21 01:28:48;;;;;;;5.32;4.80;;;19.90;99.90;;;;;;4977041;28;20057;-76
2022/07/21 01:31:14;;;;;;;5.47;4.93;;;20.00;99.90;;;;;;4998793;28;20456;-77
2022/07/21 01:33:41;;;;;;;4.43;4.03;;;20.00;99.90;;;;;;4976334;28;20028;-76
2022/07/21 01:36:07;;;;;;;6.10;4.30;;;19.90;99.90;;;;;;4969844;28;20048;-76
2022/07/21 01:41:29;;;;;;;4.50;3.90;;;19.90;99.90;;;;;;5015448;28;20028;-77
2022/07/21 01:44:00;;;;;;;4.35;3.95;;;20.00;99.90;;;;;;4996895;28;20034;-76
2022/07/21 01:46:26;;;;;;;4.40;4.00;;;19.90;99.90;;;;;;5017297;28;20022;-76
2022/07/21 01:48:52;;;;;;;4.78;4.25;;;19.90;99.90;;;;;;5019066;28;20026;-77
2022/07/21 01:51:17;;;;;;;5.13;4.47;;;19.80;99.90;;;;;;5004808;28;20486;-76
2022/07/21 01:53:43;;;;;;;5.63;5.03;;;19.70;99.90;;;;;;5000112;28;20541;-76
2022/07/21 01:56:09;;;;;;;4.03;3.65;;;19.70;99.90;;;;;;4990363;28;20087;-76
2022/07/21 01:58:35;;;;;;;4.10;3.80;;;19.80;99.90;;;;;;4980390;28;20037;-76
2022/07/21 02:01:00;;;;;;;3.40;3.08;;;19.80;99.90;;;;;;4981181;28;20026;-77
2022/07/21 02:03:26;;;;;;;4.22;3.83;;;19.80;99.90;;;;;;5021102;28;20028;-76
2022/07/21 02:05:52;;;;;;;4.38;3.88;;;19.80;99.90;;;;;;4991671;28;20045;-76
2022/07/21 02:08:17;;;;;;;6.05;4.63;;;19.90;99.90;;;;;;4993835;28;20476;-76
2022/07/21 02:10:43;;;;;;;4.50;4.13;;;19.90;99.90;;;;;;4999757;28;20152;-76
2022/07/21 02:13:09;;;;;;;4.70;4.30;;;19.90;99.90;;;;;;4999900;28;20023;-77
2022/07/21 02:15:34;;;;;;;4.95;4.45;;;19.80;99.90;;;;;;5011906;28;20499;-77
2022/07/21 02:18:00;;;;;;;4.32;3.92;;;19.80;99.90;;;;;;5012410;28;20026;-76
2022/07/21 02:20:26;;;;;;;6.65;5.28;;;19.90;99.90;;;;;;4984633;28;20041;-77
2022/07/21 02:22:52;;;;;;;6.13;4.93;;;19.80;99.90;;;;;;5011472;28;20025;-77
2022/07/21 02:25:18;;;;;;;8.48;5.60;;;19.70;99.90;;;;;;5022167;28;20381;-77
2022/07/21 02:27:45;;;;;;;6.25;5.65;;;19.70;99.90;;;;;;5010669;28;20155;-76
2022/07/21 02:30:12;;;;;;;6.80;6.20;;;19.70;99.90;;;;;;5009331;28;20069;-77
2022/07/21 02:32:37;;;;;;;6.97;6.28;;;19.60;99.90;;;;;;5007694;28;20084;-77
2022/07/21 02:35:04;;;;;;;6.97;6.03;;;19.60;99.90;;;;;;5011757;28;20045;-76
2022/07/21 02:37:30;;;;;;;6.43;5.75;;;19.60;99.90;;;;;;4987513;28;20037;-77
2022/07/21 02:39:56;;;;;;;6.93;5.63;;;19.60;99.90;;;;;;5011068;28;20076;-77
2022/07/21 02:42:21;;;;;;;6.50;5.88;;;19.60;99.90;;;;;;5009201;28;20979;-76
2022/07/21 02:44:47;;;;;;;6.95;5.95;;;19.60;99.90;;;;;;5004026;28;20482;-76
2022/07/21 02:47:13;;;;;;;5.97;5.25;;;19.50;99.90;;;;;;5011069;28;20022;-76
2022/07/21 02:49:38;;;;;;;7.10;5.18;;;19.50;99.90;;;;;;5010159;28;20148;-76
2022/07/21 02:52:05;;;;;;;5.10;4.53;;;19.40;99.90;;;;;;5007564;28;20037;-77
2022/07/21 02:54:31;;;;;;;6.47;5.95;;;19.40;99.90;;;;;;4988045;28;20029;-76
2022/07/21 02:56:57;;;;;;;5.03;4.63;;;19.50;99.90;;;;;;4984954;28;20044;-76
2022/07/21 02:59:23;;;;;;;5.45;4.55;;;19.40;99.90;;;;;;5002448;28;20023;-77
2022/07/21 03:01:49;;;;;;;6.32;5.72;;;19.40;99.90;;;;;;5021838;28;20038;-77
2022/07/21 03:04:14;;;;;;;5.55;5.05;;;19.30;99.90;;;;;;4998105;28;20022;-77
2022/07/21 03:06:42;;;;;;;5.30;4.70;;;19.30;99.90;;;;;;4992787;28;20081;-78
2022/07/21 03:09:08;;;;;;;6.97;4.80;;;19.40;99.90;;;;;;5003725;28;20041;-77
2022/07/21 03:11:34;;;;;;;5.20;4.72;;;19.30;99.90;;;;;;5004364;28;20030;-77
2022/07/21 03:14:00;;;;;;;5.75;5.25;;;19.20;99.90;;;;;;4985430;28;20037;-77
2022/07/21 03:16:25;;;;;;;5.07;4.68;;;19.30;99.90;;;;;;5002077;28;20131;-77
2022/07/21 03:18:51;;;;;;;6.88;5.68;;;19.30;99.90;;;;;;5000367;28;20029;-77
2022/07/21 03:21:17;;;;;;;5.97;5.38;;;19.20;99.90;;;;;;5003291;28;20157;-77
2022/07/21 03:23:45;;;;;;;5.22;4.72;;;19.20;99.90;;;;;;5008352;28;20092;-79
2022/07/21 03:26:13;;;;;;;5.13;4.72;;;19.20;99.90;;;;;;5016927;28;20033;-80
2022/07/21 03:28:39;;;;;;;6.18;5.53;;;19.20;99.90;;;;;;5002119;28;20392;-79
2022/07/21 03:31:05;;;;;;;5.85;5.35;;;19.20;99.90;;;;;;5002673;28;20465;-78
2022/07/21 03:33:31;;;;;;;5.95;5.45;;;19.20;99.90;;;;;;5003675;28;20056;-79
2022/07/21 03:35:58;;;;;;;7.00;6.30;;;19.30;99.90;;;;;;5002498;28;20068;-79
2022/07/21 03:38:24;;;;;;;6.82;6.13;;;19.20;99.90;;;;;;5001092;28;20057;-79
2022/07/21 03:40:50;;;;;;;6.78;5.95;;;19.20;99.90;;;;;;5017384;28;20034;-79
2022/07/21 03:43:16;;;;;;;7.97;7.20;;;19.10;99.90;;;;;;5002936;28;20022;-79
2022/07/21 03:45:42;;;;;;;6.70;5.55;;;19.10;99.90;;;;;;5003002;28;20759;-79
2022/07/21 03:48:09;;;;;;;7.60;6.18;;;19.10;99.90;;;;;;5002506;28;20025;-79
2022/07/21 03:50:37;;;;;;;5.63;5.10;;;19.10;99.90;;;;;;5002531;28;20342;-79
2022/07/21 03:53:02;;;;;;;6.80;6.05;;;19.10;99.90;;;;;;5017185;28;20635;-79
2022/07/21 03:55:29;;;;;;;6.25;5.70;;;19.10;99.90;;;;;;5017016;28;20131;-79
2022/07/21 03:58:01;;;;;;;6.55;5.95;;;19.10;99.90;;;;;;4979290;28;20073;-79
2022/07/21 04:00:39;;;;;;;6.22;5.63;;;19.10;99.90;;;;;;5003061;28;20029;-79
2022/07/21 04:03:05;;;;;;;7.78;6.40;;;19.10;99.90;;;;;;5001694;28;20029;-79
2022/07/21 04:05:31;;;;;;;7.20;6.50;;;19.10;99.90;;;;;;5001895;28;20034;-79
2022/07/21 04:07:57;;;;;;;6.93;6.22;;;19.10;99.90;;;;;;5001315;28;20432;-79
2022/07/21 04:10:29;;;;;;;6.22;5.63;;;19.00;99.90;;;;;;4979419;28;20046;-79
2022/07/21 04:12:56;;;;;;;6.18;5.57;;;19.00;99.90;;;;;;4984692;28;20041;-80
2022/07/21 04:15:22;;;;;;;6.70;5.97;;;19.10;99.90;;;;;;5001344;28;20374;-79
2022/07/21 04:17:49;;;;;;;7.72;5.97;;;19.00;99.90;;;;;;5000419;28;20030;-79
2022/07/21 04:20:15;;;;;;;7.55;5.75;;;19.00;99.90;;;;;;5003263;28;20030;-79
2022/07/21 04:22:46;;;;;;;6.40;5.80;;;19.00;99.90;;;;;;5001678;28;20041;-77
2022/07/21 04:25:12;;;;;;;7.90;7.15;;;19.00;99.90;;;;;;5015687;28;20038;-79
2022/07/21 04:27:38;;;;;;;8.27;7.47;;;18.90;99.90;;;;;;4994136;28;20611;-80
2022/07/21 04:30:07;;;;;;;6.75;6.13;;;18.90;99.90;;;;;;5001256;28;20022;-79
2022/07/21 04:32:33;;;;;;;8.52;7.70;;;18.90;99.90;;;;;;5005789;28;20038;-79
2022/07/21 04:34:59;;;;;;;6.72;6.13;;;18.90;99.90;;;;;;5000507;28;20037;-79
2022/07/21 04:37:24;;;;;;;9.10;7.05;;;19.00;99.90;;;;;;5000999;28;20026;-77
2022/07/21 04:39:50;;;;;;;6.80;6.20;;;19.00;99.90;;;;;;5001522;28;20028;-77
2022/07/21 04:42:16;;;;;;;7.95;7.20;;;19.00;99.90;;;;;;4994112;28;20034;-77
2022/07/21 04:44:41;;;;;;;8.38;6.75;;;19.00;99.90;;;;;;4977628;28;20437;-79
2022/07/21 04:47:07;;;;;;;8.18;7.40;;;19.00;99.90;;;;;;5002165;28;20558;-80
2022/07/21 04:49:33;;;;;;;8.82;8.02;;;19.00;99.90;;;;;;5002183;28;20029;-79
2022/07/21 04:51:58;;;;;;;9.90;8.40;;;18.90;99.90;;;;;;5000473;28;20073;-78
2022/07/21 04:54:24;;;;;;;9.75;8.75;;;18.90;99.90;;;;;;5001878;28;20036;-77
2022/07/21 04:56:49;;;;;;;12.00;10.85;;;18.90;99.90;;;;;;5003684;28;20037;-76
2022/07/21 04:59:15;;;;;;;12.95;11.75;;;18.70;99.90;;;;;;4984265;28;20559;-79
2022/07/21 05:01:41;;;;;;;10.88;9.02;;;18.70;99.90;;;;;;4993060;28;20040;-81
2022/07/21 05:04:07;;;;;;;8.63;7.65;;;18.70;99.90;;;;;;5006155;28;20092;-79
2022/07/21 05:06:34;;;;;;;8.18;7.38;;;18.80;99.90;;;;;;5001289;28;20026;-79
2022/07/21 05:08:59;;;;;;;8.90;8.10;;;18.80;99.90;;;;;;5000028;28;20058;-79
2022/07/21 05:11:25;;;;;;;9.55;8.60;;;18.90;99.90;;;;;;4979350;28;20037;-79
2022/07/21 05:13:51;;;;;;;9.27;7.80;;;18.90;99.90;;;;;;5000652;28;20026;-79
2022/07/21 05:16:16;;;;;;;8.88;7.97;;;19.00;99.90;;;;;;4982901;28;20130;-79
2022/07/21 05:18:42;;;;;;;15.30;13.73;;;19.10;99.90;;;;;;5006955;28;20128;-79
2022/07/21 05:21:08;;;;;;;13.57;12.18;;;19.00;99.90;;;;;;5000839;28;20042;-78
2022/07/21 05:23:33;;;;;;;9.10;8.23;;;18.90;99.90;;;;;;4982118;28;20022;-78
2022/07/21 05:25:59;;;;;;;14.50;12.73;;;18.90;99.90;;;;;;5002892;28;20026;-78
2022/07/21 05:28:27;;;;;;;15.15;12.13;;;18.80;99.90;;;;;;4997792;28;20101;-79
2022/07/21 05:30:53;;;;;;;10.68;9.60;;;18.90;99.90;;;;;;4981656;28;20038;-79
2022/07/21 05:33:19;;;;;;;9.85;8.27;;;19.00;99.90;;;;;;5005358;28;20027;-79
2022/07/21 05:35:44;;;;;;;9.35;8.45;;;19.20;99.90;;;;;;5004237;28;20457;-79
2022/07/21 05:38:10;;;;;;;9.02;6.28;;;19.20;99.90;;;;;;5005023;28;20049;-78
2022/07/21 05:40:36;;;;;;;14.48;11.70;;;19.30;99.90;;;;;;5004343;28;20083;-78
2022/07/21 05:43:02;;;;;;;12.82;11.25;;;19.20;99.90;;;;;;4995543;28;20416;-78
2022/07/21 05:45:27;;;;;;;9.45;8.45;;;19.20;99.90;;;;;;5003300;28;20046;-79
2022/07/21 05:47:53;;;;;;;11.10;9.30;;;19.40;99.90;;;;;;5010266;28;20026;-79
2022/07/21 05:50:20;;;;;;;13.02;10.65;;;19.50;99.90;;;;;;4985373;28;20128;-79
2022/07/21 05:52:45;;;;;;;13.18;11.30;;;19.50;99.90;;;;;;5009234;28;20113;-78
2022/07/21 05:55:12;;;;;;;14.68;12.85;;;19.50;99.90;;;;;;4991368;28;20030;-78
2022/07/21 05:57:39;;;;;;;11.55;10.35;;;19.50;99.90;;;;;;5011183;28;20034;-78
2022/07/21 06:00:06;;;;;;;21.65;18.00;;;19.70;99.90;;;;;;5007060;28;20036;-78
2022/07/21 06:02:34;;;;;;;23.10;19.20;;;19.50;99.90;;;;;;5004671;28;20037;-80
2022/07/21 06:04:59;;;;;;;19.13;16.55;;;19.60;99.90;;;;;;5004276;28;20045;-78
2022/07/21 06:07:25;;;;;;;17.30;15.48;;;19.70;99.90;;;;;;5020329;28;21671;-78
2022/07/21 06:09:51;;;;;;;19.00;16.27;;;19.90;99.90;;;;;;5022429;28;20057;-79
2022/07/21 06:12:17;;;;;;;14.55;13.02;;;20.00;99.90;;;;;;4998045;28;20045;-79
2022/07/21 06:14:43;;;;;;;24.98;16.75;;;19.90;99.90;;;;;;5004027;28;20026;-80
2022/07/21 06:17:08;;;;;;;14.98;13.23;;;19.90;99.90;;;;;;5002788;28;20040;-85
2022/07/21 06:19:34;;;;;;;16.20;14.23;;;20.00;99.90;;;;;;5002130;28;20492;-82
2022/07/21 06:22:01;;;;;;;15.20;13.40;;;20.10;99.90;;;;;;5020359;28;20026;-79
2022/07/21 06:24:28;;;;;;;16.65;14.90;;;20.40;99.90;;;;;;5005593;28;20426;-85
2022/07/21 06:26:57;;;;;;;17.50;15.05;;;20.60;99.90;;;;;;4991400;28;20036;-84
2022/07/21 06:29:23;;;;;;;19.63;17.73;;;20.90;99.90;;;;;;5004972;28;20041;-79
2022/07/21 06:31:49;;;;;;;28.42;25.52;;;20.60;99.90;;;;;;5002608;28;20739;-81
2022/07/21 06:34:15;;;;;;;17.00;15.23;;;20.10;99.90;;;;;;5004008;28;20168;-79
2022/07/21 06:36:41;;;;;;;23.20;20.70;;;20.40;99.90;;;;;;5007340;28;20120;-83
2022/07/21 06:39:06;;;;;;;16.80;14.57;;;20.00;99.90;;;;;;5013167;28;20026;-82
2022/07/21 06:41:32;;;;;;;18.17;16.17;;;20.10;99.90;;;;;;5008607;28;20040;-82
2022/07/21 06:43:58;;;;;;;17.27;15.55;;;20.20;99.90;;;;;;5003208;28;20030;-79
2022/07/21 06:46:24;;;;;;;18.88;16.88;;;20.10;99.90;;;;;;4999698;28;20037;-79
2022/07/21 06:48:50;;;;;;;22.00;19.02;;;20.10;99.90;;;;;;5003632;28;20034;-78
2022/07/21 06:51:16;;;;;;;20.63;17.95;;;20.00;99.90;;;;;;5003925;28;20049;-80
2022/07/21 06:53:42;;;;;;;17.20;15.40;;;19.90;99.90;;;;;;5003010;28;20500;-79
2022/07/21 06:56:08;;;;;;;14.45;12.95;;;19.90;99.90;;;;;;5019997;28;20038;-80
2022/07/21 06:58:34;;;;;;;22.83;20.42;;;19.90;99.90;;;;;;5006552;28;20030;-80
2022/07/21 07:01:00;;;;;;;20.25;17.75;;;19.90;99.90;;;;;;4995380;28;20045;-79
2022/07/21 07:03:25;;;;;;;21.63;19.42;;;20.00;99.90;;;;;;5003342;28;20029;-79
2022/07/21 07:05:51;;;;;;;25.80;21.85;;;20.00;99.90;;;;;;4999169;28;20041;-77
2022/07/21 07:08:17;;;;;;;23.05;19.98;;;19.90;99.90;;;;;;5002824;28;20426;-81
2022/07/21 07:10:43;;;;;;;20.63;18.05;;;19.90;99.90;;;;;;4995111;28;20037;-78
2022/07/21 07:13:10;;;;;;;20.13;18.13;;;20.00;99.90;;;;;;5005759;28;20148;-82
2022/07/21 07:15:36;;;;;;;20.15;17.15;;;20.00;99.90;;;;;;5000563;28;20030;-78
2022/07/21 07:18:01;;;;;;;15.27;13.65;;;20.00;99.90;;;;;;5017240;28;20034;-78
2022/07/21 07:20:27;;;;;;;24.17;20.17;;;20.30;99.90;;;;;;5003012;28;20105;-79
2022/07/21 07:22:53;;;;;;;17.50;15.88;;;20.30;99.90;;;;;;5002691;28;20389;-79
2022/07/21 07:25:18;;;;;;;16.88;13.95;;;20.50;99.90;;;;;;5002224;28;20560;-78
2022/07/21 07:27:46;;;;;;;19.05;17.05;;;20.50;99.90;;;;;;4999446;28;20053;-82
2022/07/21 07:30:12;;;;;;;21.00;18.63;;;20.40;99.90;;;;;;4968743;28;20037;-79
2022/07/21 07:32:39;;;;;;;17.63;15.88;;;20.40;99.90;;;;;;4999652;28;20137;-81
2022/07/21 07:35:06;;;;;;;15.57;14.05;;;20.50;99.90;;;;;;4998906;28;20399;-82
2022/07/21 07:37:34;;;;;;;19.42;17.50;;;20.60;99.90;;;;;;5018659;28;20033;-79
2022/07/21 07:40:00;;;;;;;16.27;14.68;;;20.50;99.90;;;;;;4975176;28;20124;-84
2022/07/21 07:42:25;;;;;;;15.75;14.13;;;20.40;99.90;;;;;;4989633;28;20129;-83
2022/07/21 07:44:51;;;;;;;16.58;14.90;;;20.40;99.90;;;;;;4995749;28;20108;-77
2022/07/21 07:47:16;;;;;;;14.35;12.88;;;20.40;99.90;;;;;;4998010;28;20037;-78
2022/07/21 07:49:42;;;;;;;10.98;9.98;;;20.60;99.90;;;;;;4989695;28;20030;-79
2022/07/21 07:52:08;;;;;;;15.65;14.15;;;20.70;99.90;;;;;;4979694;28;20056;-79
2022/07/21 07:54:33;;;;;;;14.95;13.23;;;20.60;99.90;;;;;;4996468;28;20053;-81
2022/07/21 07:56:59;;;;;;;14.23;12.93;;;20.50;99.90;;;;;;4998649;28;20056;-78
2022/07/21 07:59:25;;;;;;;17.63;15.07;;;20.70;99.90;;;;;;5003666;28;20462;-80
2022/07/21 08:01:50;;;;;;;15.13;13.68;;;20.50;99.90;;;;;;5000384;28;21737;-79
2022/07/21 08:04:16;;;;;;;13.18;11.80;;;20.70;99.90;;;;;;4998556;28;20667;-78
2022/07/21 08:06:42;;;;;;;15.45;11.45;;;20.80;99.90;;;;;;4996401;28;20026;-76
2022/07/21 08:09:08;;;;;;;14.25;12.73;;;20.60;99.90;;;;;;4999102;28;20081;-78
2022/07/21 08:11:34;;;;;;;13.82;12.40;;;20.70;99.90;;;;;;5018275;28;20029;-81
2022/07/21 08:14:00;;;;;;;13.50;12.18;;;20.90;99.90;;;;;;5003031;28;20026;-80
2022/07/21 08:16:26;;;;;;;17.85;14.77;;;20.90;99.90;;;;;;4999172;28;20464;-79
2022/07/21 08:18:51;;;;;;;16.73;14.73;;;20.80;99.90;;;;;;5002334;28;20191;-78
2022/07/21 08:21:17;;;;;;;14.48;11.77;;;20.90;99.90;;;;;;4994100;28;20030;-78
2022/07/21 08:23:43;;;;;;;15.50;13.82;;;20.90;99.90;;;;;;5000740;28;20056;-82
2022/07/21 08:26:08;;;;;;;16.08;14.32;;;20.60;99.90;;;;;;5006594;28;20370;-80
2022/07/21 08:28:34;;;;;;;13.07;11.30;;;20.70;99.90;;;;;;5002258;28;20037;-77
2022/07/21 08:31:00;;;;;;;13.80;12.00;;;20.80;99.90;;;;;;4987762;28;20061;-78
2022/07/21 08:33:25;;;;;;;21.05;15.25;;;20.90;99.90;;;;;;5017313;28;20064;-82
2022/07/21 08:35:51;;;;;;;14.15;12.10;;;20.90;99.90;;;;;;4995065;28;20065;-80
2022/07/21 08:38:18;;;;;;;15.05;13.18;;;21.10;99.90;;;;;;5003338;28;20038;-79
2022/07/21 08:40:45;;;;;;;13.50;11.07;;;20.90;99.90;;;;;;5004524;28;20068;-78
2022/07/21 08:43:13;;;;;;;12.55;11.15;;;21.00;99.90;;;;;;4991496;28;20544;-79
2022/07/21 08:45:40;;;;;;;15.45;12.70;;;21.10;99.90;;;;;;4986912;28;20040;-78
2022/07/21 08:48:06;;;;;;;19.52;13.68;;;21.20;99.90;;;;;;4980747;28;20135;-79
2022/07/21 08:50:35;;;;;;;14.45;12.93;;;21.10;99.90;;;;;;5000435;28;20551;-79
2022/07/21 08:53:01;;;;;;;18.83;13.05;;;21.10;99.90;;;;;;5000565;28;20116;-79
2022/07/21 08:55:31;;;;;;;14.55;12.23;;;21.20;99.90;;;;;;5005912;28;20125;-77
2022/07/21 08:57:57;;;;;;;12.48;10.25;;;21.10;99.90;;;;;;5001276;28;20310;-77
2022/07/21 09:00:23;;;;;;;13.77;10.77;;;21.20;99.90;;;;;;4993128;28;20038;-79
2022/07/21 09:02:49;;;;;;;9.98;8.00;;;21.30;99.90;;;;;;5003159;28;20036;-79
2022/07/21 09:05:15;;;;;;;12.75;10.25;;;21.40;99.90;;;;;;5006226;28;20018;-79
2022/07/21 09:07:51;;;;;;;12.27;10.80;;;21.40;99.90;;;;;;5003395;28;20034;-78
2022/07/21 09:10:22;;;;;;;9.95;8.93;;;20.90;99.90;;;;;;5015929;28;20042;-77
2022/07/21 09:12:50;;;;;;;9.93;8.13;;;21.00;99.90;;;;;;4993984;28;20033;-78
2022/07/21 09:15:21;;;;;;;9.80;6.63;;;21.00;99.90;;;;;;5006290;28;20030;-81
2022/07/21 09:18:02;;;;;;;14.07;11.07;;;21.00;99.90;;;;;;5000581;28;20037;-80
2022/07/21 09:20:28;;;;;;;15.63;10.07;;;20.90;99.90;;;;;;5010665;28;20575;-80
2022/07/21 09:23:02;;;;;;;11.65;9.63;;;20.80;99.90;;;;;;4999337;28;20125;-79
2022/07/21 09:25:40;;;;;;;11.40;8.80;;;20.80;99.90;;;;;;5000456;28;20069;-83
2022/07/21 09:28:18;;;;;;;13.07;10.10;;;20.90;99.90;;;;;;4983753;28;20040;-78
2022/07/21 09:30:48;;;;;;;11.25;6.22;;;20.90;99.90;;;;;;4998122;28;20386;-81
2022/07/21 09:33:44;;;;;;;11.15;8.05;;;20.80;99.90;;;;;;5001926;28;20030;-82
2022/07/21 09:36:16;;;;;;;8.60;7.75;;;21.00;99.90;;;;;;4985606;28;20165;-79
2022/07/21 09:38:51;;;;;;;10.23;7.63;;;21.00;99.90;;;;;;5016280;28;20434;-78
2022/07/21 09:41:20;;;;;;;6.28;5.60;;;21.00;99.90;;;;;;4997922;28;20064;-80
2022/07/21 09:43:48;;;;;;;6.50;5.50;;;21.00;99.90;;;;;;5000188;28;20089;-81
2022/07/21 09:46:22;;;;;;;11.77;9.60;;;20.90;99.90;;;;;;5002757;28;20061;-78
2022/07/21 09:48:51;;;;;;;11.75;10.30;;;20.70;99.90;;;;;;5003980;28;20058;-77
2022/07/21 09:51:21;;;;;;;10.13;9.00;;;20.50;99.90;;;;;;5004487;28;20029;-80
2022/07/21 09:53:47;;;;;;;;;;;20.50;99.90;;;;;;5011526;28;20030;-83
2022/07/21 09:56:13;;;;;;;5.18;3.85;;;20.60;99.90;;;;;;5003615;28;20449;-78
2022/07/21 09:58:40;;;;;;;3.90;1.58;;;20.40;99.90;;;;;;4974168;28;20049;-79
2022/07/21 10:01:06;;;;;;;2.10;1.15;;;20.30;99.90;;;;;;5001530;28;20038;-80
2022/07/21 10:03:32;;;;;;;1.58;0.60;;;20.30;99.90;;;;;;5004460;28;20436;-81
2022/07/21 10:05:57;;;;;;;7.78;0.60;;;20.30;99.90;;;;;;4987216;28;20434;-77
2022/07/21 10:08:23;;;;;;;1.75;0.50;;;20.40;99.90;;;;;;5006476;28;20042;-82
2022/07/21 10:10:49;;;;;;;0.70;0.40;;;20.10;99.90;;;;;;5003549;28;20069;-81
2022/07/21 10:13:15;;;;;;;0.60;0.30;;;20.00;99.90;;;;;;4988969;28;20025;-77
2022/07/21 10:15:40;;;;;;;1.02;0.50;;;19.90;99.90;;;;;;5000044;28;20069;-77
2022/07/21 10:18:07;;;;;;;0.80;0.40;;;19.60;99.90;;;;;;4999521;28;20038;-81
2022/07/21 10:20:38;;;;;;;1.20;0.40;;;19.80;99.90;;;;;;4996546;28;20446;-81
2022/07/21 10:23:14;;;;;;;0.90;0.40;;;19.90;99.90;;;;;;4977283;28;20121;-81
2022/07/21 10:25:42;;;;;;;0.90;0.40;;;19.90;99.90;;;;;;5001184;28;20110;-77
2022/07/21 10:28:11;;;;;;;0.80;0.40;;;19.80;99.90;;;;;;5001159;28;20481;-78
2022/07/21 10:30:39;;;;;;;1.13;0.40;;;19.70;99.90;;;;;;4991983;28;20105;-78
2022/07/21 10:33:05;;;;;;;1.52;0.40;;;19.60;99.90;;;;;;4995747;28;20135;-80
2022/07/21 10:35:31;;;;;;;1.00;0.40;;;19.70;99.90;;;;;;4992255;28;20548;-83
2022/07/21 10:38:02;;;;;;;1.25;0.40;;;19.70;99.90;;;;;;4970265;28;20032;-78
2022/07/21 10:40:28;;;;;;;1.13;0.40;;;19.70;99.90;;;;;;4994972;28;20041;-78
2022/07/21 10:42:59;;;;;;;0.88;0.32;;;19.70;99.90;;;;;;4999954;28;20447;-77
2022/07/21 10:45:32;;;;;;;1.08;0.52;;;19.80;99.90;;;;;;4998703;28;20041;-77
2022/07/21 10:48:00;;;;;;;1.27;0.40;;;19.70;99.90;;;;;;4999246;28;20084;-79
2022/07/21 10:50:40;;;;;;;0.80;0.40;;;19.70;99.90;;;;;;4999341;28;20359;-77
2022/07/21 10:53:12;;;;;;;1.20;0.60;;;19.70;99.90;;;;;;4991262;28;20033;-77
2022/07/21 10:55:45;;;;;;;1.35;0.57;;;19.60;99.90;;;;;;4999384;28;20048;-77
2022/07/21 10:58:36;;;;;;;1.10;0.50;;;19.60;99.90;;;;;;4981155;28;20236;-77
2022/07/21 11:01:07;;;;;;;2.05;0.50;;;19.70;99.90;;;;;;4998849;28;20057;-78
2022/07/21 11:03:40;;;;;;;0.85;0.40;;;19.80;99.90;;;;;;4999039;28;20026;-77
2022/07/21 11:06:09;;;;;;;1.27;0.50;;;19.80;99.90;;;;;;5000240;28;20136;-77
2022/07/21 11:08:40;;;;;;;2.40;0.95;;;19.90;99.90;;;;;;4991957;28;20054;-78
2022/07/21 11:11:08;;;;;;;1.02;0.40;;;19.90;99.90;;;;;;5013254;28;20067;-80
2022/07/21 11:14:02;;;;;;;1.17;0.60;;;19.90;99.90;;;;;;4973955;28;20021;-77
2022/07/21 11:17:02;;;;;;;1.95;0.90;;;19.80;99.90;;;;;;4996651;28;20044;-81
2022/07/21 11:19:43;;;;;;;2.00;1.50;;;19.60;99.90;;;;;;4974758;28;20061;-77
2022/07/21 11:22:26;;;;;;;3.22;3.03;;;19.40;99.90;;;;;;4989670;28;20804;-76
2022/07/21 11:24:59;;;;;;;3.50;2.55;;;19.30;99.90;;;;;;4989104;28;20033;-79
2022/07/21 11:27:28;;;;;;;4.57;4.18;;;19.30;99.90;;;;;;4995226;28;20061;-80
2022/07/21 11:29:57;;;;;;;5.03;4.57;;;19.00;99.90;;;;;;4992069;28;20505;-77
2022/07/21 11:32:23;;;;;;;6.07;5.57;;;19.00;99.90;;;;;;4995797;28;20037;-77
2022/07/21 11:34:59;;;;;;;5.50;5.00;;;18.80;99.90;;;;;;4997049;28;20065;-80
2022/07/21 11:37:37;;;;;;;8.18;7.43;;;18.90;99.90;;;;;;4996026;28;20050;-80
2022/07/21 11:40:06;;;;;;;8.70;7.28;;;18.80;99.90;;;;;;5011380;28;20458;-76
2022/07/21 11:42:32;;;;;;;9.43;8.57;;;18.70;99.90;;;;;;4996328;28;20029;-78
2022/07/21 11:44:57;;;;;;;9.40;8.50;;;18.70;99.90;;;;;;4996571;28;20026;-77
2022/07/21 11:47:26;;;;;;;10.35;9.35;;;18.70;99.90;;;;;;5011135;28;20045;-81
2022/07/21 11:49:57;;;;;;;11.57;10.27;;;18.80;99.90;;;;;;4996650;28;20078;-77
2022/07/21 11:52:30;;;;;;;12.15;10.95;;;18.80;99.90;;;;;;4996893;28;20026;-78
2022/07/21 11:54:57;;;;;;;9.57;8.57;;;18.90;99.90;;;;;;5011913;28;20044;-82
2022/07/21 11:57:25;;;;;;;10.00;9.10;;;18.90;99.90;;;;;;4993740;28;20030;-77
2022/07/21 11:59:52;;;;;;;11.32;10.23;;;19.10;99.90;;;;;;5005066;28;20530;-79
2022/07/21 12:02:23;;;;;;;10.13;9.27;;;18.90;99.90;;;;;;4997047;28;20057;-76
2022/07/21 12:04:59;;;;;;;12.43;11.13;;;19.00;99.90;;;;;;5018628;28;20029;-76
2022/07/21 12:07:29;;;;;;;14.90;13.40;;;18.90;99.90;;;;;;5001150;28;20101;-76
2022/07/21 12:10:05;;;;;;;13.63;11.00;;;18.80;99.90;;;;;;4997219;28;20129;-76
2022/07/21 12:12:35;;;;;;;14.13;12.40;;;18.80;99.90;;;;;;4978932;28;20111;-76
2022/07/21 12:15:17;;;;;;;;;;;18.80;99.90;;;;;;5007786;28;20377;-77
2022/07/21 12:17:51;;;;;;;11.52;10.40;;;18.80;99.90;;;;;;5011895;28;19983;-77
2022/07/21 12:20:45;;;;;;;11.50;10.45;;;18.80;99.90;;;;;;5011521;28;20037;-77
2022/07/21 12:23:31;;;;;;;9.48;8.48;;;18.80;99.90;;;;;;4995029;28;20042;-78
2022/07/21 12:26:02;;;;;;;13.68;12.35;;;18.70;99.90;;;;;;4995388;28;20033;-76
2022/07/21 12:28:56;;;;;;;15.18;13.65;;;18.70;99.90;;;;;;4995126;28;20041;-76
2022/07/21 12:31:23;;;;;;;17.85;16.23;;;18.80;99.90;;;;;;4997446;28;21881;-76
2022/07/21 12:33:56;;;;;;;16.25;14.55;;;18.80;99.90;;;;;;4998610;28;20421;-77
2022/07/21 12:36:21;;;;;;;19.65;17.80;;;18.60;99.90;;;;;;4994782;28;20076;-76
2022/07/21 12:38:49;;;;;;;16.70;15.13;;;18.60;99.90;;;;;;4993719;28;20080;-79
2022/07/21 12:41:17;;;;;;;19.23;17.40;;;18.70;99.90;;;;;;4988802;28;20062;-77
2022/07/21 12:43:52;;;;;;;16.27;14.68;;;18.70;99.90;;;;;;4989327;28;20021;-77
2022/07/21 12:46:18;;;;;;;17.10;15.30;;;18.70;99.90;;;;;;4995272;28;20087;-78
2022/07/21 12:48:44;;;;;;;17.50;15.80;;;18.70;99.90;;;;;;4995279;28;20042;-78
2022/07/21 12:51:19;;;;;;;17.60;15.77;;;18.70;99.90;;;;;;4993478;28;20539;-77